sensor_id;sensor_type;location;lat;lon;timestamp;temperature;humidity
54960;DHT22;40860;51.710;8.736;2023-09-08T00:00:34;19.50;91.90
54960;DHT22;40860;51.710;8.736;2023-09-08T00:04:37;19.50;92.30
54960;DHT22;40860;51.710;8.736;2023-09-08T00:08:43;19.40;92.10
54960;DHT22;40860;51.710;8.736;2023-09-08T00:12:45;19.30;92.50
54960;DHT22;40860;51.710;8.736;2023-09-08T00:16:48;19.20;92.80
54960;DHT22;40860;51.710;8.736;2023-09-08T00:20:53;19.20;93.10
54960;DHT22;40860;51.710;8.736;2023-09-08T00:24:57;19.00;93.30
54960;DHT22;40860;51.710;8.736;2023-09-08T00:29:00;19.00;93.50
54960;DHT22;40860;51.710;8.736;2023-09-08T00:33:03;18.90;93.80
54960;DHT22;40860;51.710;8.736;2023-09-08T00:37:10;18.80;94.00
54960;DHT22;40860;51.710;8.736;2023-09-08T00:41:15;18.80;94.10
54960;DHT22;40860;51.710;8.736;2023-09-08T00:45:18;19.00;93.90
54960;DHT22;40860;51.710;8.736;2023-09-08T00:49:21;19.30;93.40
54960;DHT22;40860;51.710;8.736;2023-09-08T00:53:25;19.30;93.30
54960;DHT22;40860;51.710;8.736;2023-09-08T00:57:30;19.10;93.30
54960;DHT22;40860;51.710;8.736;2023-09-08T01:01:34;19.00;93.70
54960;DHT22;40860;51.710;8.736;2023-09-08T01:05:37;18.80;94.00
54960;DHT22;40860;51.710;8.736;2023-09-08T01:09:42;18.90;94.00
54960;DHT22;40860;51.710;8.736;2023-09-08T01:13:46;19.10;93.70
54960;DHT22;40860;51.710;8.736;2023-09-08T01:17:49;19.10;93.50
54960;DHT22;40860;51.710;8.736;2023-09-08T01:22:16;19.00;93.50
54960;DHT22;40860;51.710;8.736;2023-09-08T01:26:31;19.10;93.30
54960;DHT22;40860;51.710;8.736;2023-09-08T01:30:37;19.30;93.00
54960;DHT22;40860;51.710;8.736;2023-09-08T01:34:40;19.30;92.80
54960;DHT22;40860;51.710;8.736;2023-09-08T01:38:43;19.30;92.90
54960;DHT22;40860;51.710;8.736;2023-09-08T01:42:47;19.20;93.00
54960;DHT22;40860;51.710;8.736;2023-09-08T01:46:51;19.10;93.30
54960;DHT22;40860;51.710;8.736;2023-09-08T01:50:58;18.90;93.80
54960;DHT22;40860;51.710;8.736;2023-09-08T01:55:01;18.80;93.90
54960;DHT22;40860;51.710;8.736;2023-09-08T01:59:05;18.80;94.00
54960;DHT22;40860;51.710;8.736;2023-09-08T02:03:08;18.80;93.80
54960;DHT22;40860;51.710;8.736;2023-09-08T02:07:11;18.70;93.90
54960;DHT22;40860;51.710;8.736;2023-09-08T02:11:15;18.60;94.10
54960;DHT22;40860;51.710;8.736;2023-09-08T02:15:19;18.50;94.10
54960;DHT22;40860;51.710;8.736;2023-09-08T02:19:23;18.30;94.60
54960;DHT22;40860;51.710;8.736;2023-09-08T02:23:26;18.20;94.50
54960;DHT22;40860;51.710;8.736;2023-09-08T02:27:28;18.00;95.30
54960;DHT22;40860;51.710;8.736;2023-09-08T02:31:33;17.90;95.70
54960;DHT22;40860;51.710;8.736;2023-09-08T02:35:39;17.80;95.90
54960;DHT22;40860;51.710;8.736;2023-09-08T02:39:45;17.70;95.80
54960;DHT22;40860;51.710;8.736;2023-09-08T02:43:49;17.60;96.20
54960;DHT22;40860;51.710;8.736;2023-09-08T02:47:54;17.50;96.50
54960;DHT22;40860;51.710;8.736;2023-09-08T02:56:02;17.40;97.00
54960;DHT22;40860;51.710;8.736;2023-09-08T03:00:07;17.30;97.60
54960;DHT22;40860;51.710;8.736;2023-09-08T03:04:11;17.20;97.50
54960;DHT22;40860;51.710;8.736;2023-09-08T03:08:15;17.20;97.70
54960;DHT22;40860;51.710;8.736;2023-09-08T03:12:18;17.10;97.80
54960;DHT22;40860;51.710;8.736;2023-09-08T03:16:21;17.00;97.90
54960;DHT22;40860;51.710;8.736;2023-09-08T03:20:26;17.00;98.20
54960;DHT22;40860;51.710;8.736;2023-09-08T03:24:30;16.90;98.30
54960;DHT22;40860;51.710;8.736;2023-09-08T03:28:34;16.90;98.20
54960;DHT22;40860;51.710;8.736;2023-09-08T03:32:40;16.90;98.20
54960;DHT22;40860;51.710;8.736;2023-09-08T03:36:45;16.90;98.10
54960;DHT22;40860;51.710;8.736;2023-09-08T03:40:47;16.90;98.20
54960;DHT22;40860;51.710;8.736;2023-09-08T03:44:51;16.90;98.40
54960;DHT22;40860;51.710;8.736;2023-09-08T03:48:54;16.90;98.40
54960;DHT22;40860;51.710;8.736;2023-09-08T03:53:03;17.00;98.30
54960;DHT22;40860;51.710;8.736;2023-09-08T03:57:06;17.00;99.70
54960;DHT22;40860;51.710;8.736;2023-09-08T04:01:09;17.00;98.30
54960;DHT22;40860;51.710;8.736;2023-09-08T04:05:12;17.10;98.00
54960;DHT22;40860;51.710;8.736;2023-09-08T04:09:17;17.20;98.10
54960;DHT22;40860;51.710;8.736;2023-09-08T04:13:20;17.10;98.10
54960;DHT22;40860;51.710;8.736;2023-09-08T04:17:23;17.00;98.30
54960;DHT22;40860;51.710;8.736;2023-09-08T04:21:26;16.90;98.30
54960;DHT22;40860;51.710;8.736;2023-09-08T04:25:30;16.90;98.50
54960;DHT22;40860;51.710;8.736;2023-09-08T04:29:33;16.80;98.70
54960;DHT22;40860;51.710;8.736;2023-09-08T04:33:36;16.80;98.70
54960;DHT22;40860;51.710;8.736;2023-09-08T04:37:40;16.70;98.80
54960;DHT22;40860;51.710;8.736;2023-09-08T04:41:44;16.70;99.20
54960;DHT22;40860;51.710;8.736;2023-09-08T04:45:48;16.60;99.20
54960;DHT22;40860;51.710;8.736;2023-09-08T04:49:52;16.60;99.50
54960;DHT22;40860;51.710;8.736;2023-09-08T04:53:55;16.70;99.30
54960;DHT22;40860;51.710;8.736;2023-09-08T04:57:59;16.60;99.60
54960;DHT22;40860;51.710;8.736;2023-09-08T05:02:03;16.50;99.70
54960;DHT22;40860;51.710;8.736;2023-09-08T05:06:06;16.50;99.90
54960;DHT22;40860;51.710;8.736;2023-09-08T05:10:09;16.50;99.90
54960;DHT22;40860;51.710;8.736;2023-09-08T05:14:14;16.60;99.90
54960;DHT22;40860;51.710;8.736;2023-09-08T05:18:17;16.50;99.90
54960;DHT22;40860;51.710;8.736;2023-09-08T05:22:20;16.50;99.90
54960;DHT22;40860;51.710;8.736;2023-09-08T05:26:25;16.50;99.90
54960;DHT22;40860;51.710;8.736;2023-09-08T05:30:29;16.60;99.90
54960;DHT22;40860;51.710;8.736;2023-09-08T05:34:32;16.60;99.90
54960;DHT22;40860;51.710;8.736;2023-09-08T05:38:36;16.70;99.90
54960;DHT22;40860;51.710;8.736;2023-09-08T05:42:39;16.80;99.90
54960;DHT22;40860;51.710;8.736;2023-09-08T05:46:47;16.80;99.90
54960;DHT22;40860;51.710;8.736;2023-09-08T05:50:51;16.80;99.90
54960;DHT22;40860;51.710;8.736;2023-09-08T05:54:55;16.90;99.90
54960;DHT22;40860;51.710;8.736;2023-09-08T05:58:58;17.00;99.90
54960;DHT22;40860;51.710;8.736;2023-09-08T06:03:04;17.10;99.90
54960;DHT22;40860;51.710;8.736;2023-09-08T06:07:08;17.40;99.90
54960;DHT22;40860;51.710;8.736;2023-09-08T06:11:11;17.70;99.90
54960;DHT22;40860;51.710;8.736;2023-09-08T06:15:15;18.00;99.20
54960;DHT22;40860;51.710;8.736;2023-09-08T06:19:20;18.10;99.20
54960;DHT22;40860;51.710;8.736;2023-09-08T06:23:23;18.20;98.70
54960;DHT22;40860;51.710;8.736;2023-09-08T06:27:27;18.30;98.30
54960;DHT22;40860;51.710;8.736;2023-09-08T06:31:30;18.60;97.60
54960;DHT22;40860;51.710;8.736;2023-09-08T06:35:35;18.80;97.30
54960;DHT22;40860;51.710;8.736;2023-09-08T06:39:38;19.00;96.70
54960;DHT22;40860;51.710;8.736;2023-09-08T06:43:42;19.00;96.40
54960;DHT22;40860;51.710;8.736;2023-09-08T06:47:50;19.20;96.30
54960;DHT22;40860;51.710;8.736;2023-09-08T06:51:58;19.50;95.60
54960;DHT22;40860;51.710;8.736;2023-09-08T06:56:01;19.40;95.80
54960;DHT22;40860;51.710;8.736;2023-09-08T07:00:07;19.60;95.90
54960;DHT22;40860;51.710;8.736;2023-09-08T07:04:11;19.70;96.50
54960;DHT22;40860;51.710;8.736;2023-09-08T07:08:16;19.70;95.80
54960;DHT22;40860;51.710;8.736;2023-09-08T07:12:20;19.90;95.50
54960;DHT22;40860;51.710;8.736;2023-09-08T07:16:23;20.20;94.80
54960;DHT22;40860;51.710;8.736;2023-09-08T07:20:26;20.40;94.60
54960;DHT22;40860;51.710;8.736;2023-09-08T07:24:30;20.50;94.80
54960;DHT22;40860;51.710;8.736;2023-09-08T07:28:33;20.60;94.40
54960;DHT22;40860;51.710;8.736;2023-09-08T07:32:40;20.80;93.90
54960;DHT22;40860;51.710;8.736;2023-09-08T07:36:43;21.00;93.60
54960;DHT22;40860;51.710;8.736;2023-09-08T07:40:48;21.20;93.40
54960;DHT22;40860;51.710;8.736;2023-09-08T07:44:51;21.50;93.10
54960;DHT22;40860;51.710;8.736;2023-09-08T07:48:54;21.60;97.80
54960;DHT22;40860;51.710;8.736;2023-09-08T07:52:57;21.80;97.30
54960;DHT22;40860;51.710;8.736;2023-09-08T07:57:04;22.10;94.70
54960;DHT22;40860;51.710;8.736;2023-09-08T08:01:07;22.20;96.80
54960;DHT22;40860;51.710;8.736;2023-09-08T08:05:10;22.50;92.20
54960;DHT22;40860;51.710;8.736;2023-09-08T08:13:17;22.90;90.90
54960;DHT22;40860;51.710;8.736;2023-09-08T08:17:20;23.50;89.30
54960;DHT22;40860;51.710;8.736;2023-09-08T08:21:23;23.50;90.10
54960;DHT22;40860;51.710;8.736;2023-09-08T08:25:26;23.80;89.60
54960;DHT22;40860;51.710;8.736;2023-09-08T08:29:30;24.00;89.50
54960;DHT22;40860;51.710;8.736;2023-09-08T08:33:33;24.20;88.60
54960;DHT22;40860;51.710;8.736;2023-09-08T08:37:39;24.60;86.60
54960;DHT22;40860;51.710;8.736;2023-09-08T08:41:42;25.30;83.40
54960;DHT22;40860;51.710;8.736;2023-09-08T08:45:46;25.30;84.20
54960;DHT22;40860;51.710;8.736;2023-09-08T08:49:52;25.60;83.20
54960;DHT22;40860;51.710;8.736;2023-09-08T08:53:56;25.80;82.20
54960;DHT22;40860;51.710;8.736;2023-09-08T08:58:03;26.00;81.20
54960;DHT22;40860;51.710;8.736;2023-09-08T09:02:09;26.20;80.10
54960;DHT22;40860;51.710;8.736;2023-09-08T09:06:14;26.40;79.50
54960;DHT22;40860;51.710;8.736;2023-09-08T09:10:17;26.70;79.40
54960;DHT22;40860;51.710;8.736;2023-09-08T09:14:20;27.10;78.90
54960;DHT22;40860;51.710;8.736;2023-09-08T09:18:26;27.30;74.00
54960;DHT22;40860;51.710;8.736;2023-09-08T09:22:36;27.30;72.80
54960;DHT22;40860;51.710;8.736;2023-09-08T09:26:39;27.40;73.10
54960;DHT22;40860;51.710;8.736;2023-09-08T09:30:50;27.50;72.00
54960;DHT22;40860;51.710;8.736;2023-09-08T09:34:57;27.70;70.90
54960;DHT22;40860;51.710;8.736;2023-09-08T09:43:07;28.50;72.40
54960;DHT22;40860;51.710;8.736;2023-09-08T09:47:10;28.80;74.00
54960;DHT22;40860;51.710;8.736;2023-09-08T09:59:24;29.50;96.70
54960;DHT22;40860;51.710;8.736;2023-09-08T10:03:29;29.50;70.30
54960;DHT22;40860;51.710;8.736;2023-09-08T10:07:35;29.90;66.20
54960;DHT22;40860;51.710;8.736;2023-09-08T10:11:41;30.30;63.10
54960;DHT22;40860;51.710;8.736;2023-09-08T10:19:49;30.10;70.70
54960;DHT22;40860;51.710;8.736;2023-09-08T10:23:59;30.00;69.90
54960;DHT22;40860;51.710;8.736;2023-09-08T10:28:02;30.20;61.60
54960;DHT22;40860;51.710;8.736;2023-09-08T10:32:07;30.00;60.80
54960;DHT22;40860;51.710;8.736;2023-09-08T10:36:11;29.90;61.40
54960;DHT22;40860;51.710;8.736;2023-09-08T10:40:23;29.90;62.00
54960;DHT22;40860;51.710;8.736;2023-09-08T10:44:27;29.80;59.90
54960;DHT22;40860;51.710;8.736;2023-09-08T10:48:40;29.80;61.10
54960;DHT22;40860;51.710;8.736;2023-09-08T10:52:44;29.80;60.40
54960;DHT22;40860;51.710;8.736;2023-09-08T10:56:55;29.80;59.80
54960;DHT22;40860;51.710;8.736;2023-09-08T11:00:59;29.70;59.70
54960;DHT22;40860;51.710;8.736;2023-09-08T11:05:03;29.60;59.90
54960;DHT22;40860;51.710;8.736;2023-09-08T11:09:07;29.60;60.80
54960;DHT22;40860;51.710;8.736;2023-09-08T11:13:11;29.70;59.20
54960;DHT22;40860;51.710;8.736;2023-09-08T11:17:14;29.70;59.40
54960;DHT22;40860;51.710;8.736;2023-09-08T11:21:17;29.80;59.40
54960;DHT22;40860;51.710;8.736;2023-09-08T11:25:20;29.80;59.70
54960;DHT22;40860;51.710;8.736;2023-09-08T11:29:25;29.90;59.90
54960;DHT22;40860;51.710;8.736;2023-09-08T11:33:33;30.10;60.50
54960;DHT22;40860;51.710;8.736;2023-09-08T11:37:36;30.20;57.70
54960;DHT22;40860;51.710;8.736;2023-09-08T11:41:40;30.00;57.70
54960;DHT22;40860;51.710;8.736;2023-09-08T11:45:44;30.10;59.80
54960;DHT22;40860;51.710;8.736;2023-09-08T11:49:47;30.20;57.70
54960;DHT22;40860;51.710;8.736;2023-09-08T11:53:50;30.00;56.30
54960;DHT22;40860;51.710;8.736;2023-09-08T11:57:54;30.00;55.90
54960;DHT22;40860;51.710;8.736;2023-09-08T12:02:00;29.90;56.10
54960;DHT22;40860;51.710;8.736;2023-09-08T12:06:03;30.00;56.90
54960;DHT22;40860;51.710;8.736;2023-09-08T12:10:08;30.00;57.30
54960;DHT22;40860;51.710;8.736;2023-09-08T12:14:12;29.80;56.20
54960;DHT22;40860;51.710;8.736;2023-09-08T12:18:17;29.80;57.40
54960;DHT22;40860;51.710;8.736;2023-09-08T12:22:20;29.70;55.70
54960;DHT22;40860;51.710;8.736;2023-09-08T12:26:25;29.70;56.50
54960;DHT22;40860;51.710;8.736;2023-09-08T12:30:28;29.50;55.90
54960;DHT22;40860;51.710;8.736;2023-09-08T12:34:36;29.60;57.40
54960;DHT22;40860;51.710;8.736;2023-09-08T12:38:39;29.70;57.40
54960;DHT22;40860;51.710;8.736;2023-09-08T12:42:41;29.60;57.50
54960;DHT22;40860;51.710;8.736;2023-09-08T12:46:53;29.70;57.90
54960;DHT22;40860;51.710;8.736;2023-09-08T12:50:57;29.80;57.60
54960;DHT22;40860;51.710;8.736;2023-09-08T12:55:00;29.80;57.30
54960;DHT22;40860;51.710;8.736;2023-09-08T12:59:03;29.80;58.10
54960;DHT22;40860;51.710;8.736;2023-09-08T13:03:06;29.90;56.90
54960;DHT22;40860;51.710;8.736;2023-09-08T13:07:10;29.80;57.70
54960;DHT22;40860;51.710;8.736;2023-09-08T13:11:13;29.80;57.70
54960;DHT22;40860;51.710;8.736;2023-09-08T13:15:16;29.90;56.50
54960;DHT22;40860;51.710;8.736;2023-09-08T13:19:19;30.00;56.50
54960;DHT22;40860;51.710;8.736;2023-09-08T13:23:23;29.90;56.00
54960;DHT22;40860;51.710;8.736;2023-09-08T13:27:26;29.90;55.80
54960;DHT22;40860;51.710;8.736;2023-09-08T13:31:29;30.00;55.90
54960;DHT22;40860;51.710;8.736;2023-09-08T13:35:35;30.10;55.40
54960;DHT22;40860;51.710;8.736;2023-09-08T13:39:39;30.20;55.10
54960;DHT22;40860;51.710;8.736;2023-09-08T13:43:42;30.10;54.80
54960;DHT22;40860;51.710;8.736;2023-09-08T13:47:48;30.10;55.00
54960;DHT22;40860;51.710;8.736;2023-09-08T13:51:59;30.20;55.00
54960;DHT22;40860;51.710;8.736;2023-09-08T13:56:07;30.20;55.20
54960;DHT22;40860;51.710;8.736;2023-09-08T14:00:11;30.20;55.50
54960;DHT22;40860;51.710;8.736;2023-09-08T14:04:18;30.30;55.20
54960;DHT22;40860;51.710;8.736;2023-09-08T14:08:26;30.40;55.10
54960;DHT22;40860;51.710;8.736;2023-09-08T14:12:38;30.50;55.50
54960;DHT22;40860;51.710;8.736;2023-09-08T14:16:41;30.60;55.60
54960;DHT22;40860;51.710;8.736;2023-09-08T14:20:44;30.60;55.70
54960;DHT22;40860;51.710;8.736;2023-09-08T14:24:47;30.70;54.50
54960;DHT22;40860;51.710;8.736;2023-09-08T14:28:51;30.70;54.90
54960;DHT22;40860;51.710;8.736;2023-09-08T14:32:55;30.90;55.00
54960;DHT22;40860;51.710;8.736;2023-09-08T14:36:58;31.40;53.40
54960;DHT22;40860;51.710;8.736;2023-09-08T14:41:05;31.60;54.30
54960;DHT22;40860;51.710;8.736;2023-09-08T14:45:10;31.80;54.00
54960;DHT22;40860;51.710;8.736;2023-09-08T14:49:14;31.90;53.50
54960;DHT22;40860;51.710;8.736;2023-09-08T14:53:17;32.10;55.10
54960;DHT22;40860;51.710;8.736;2023-09-08T14:57:22;32.40;52.20
54960;DHT22;40860;51.710;8.736;2023-09-08T15:01:27;32.70;54.50
54960;DHT22;40860;51.710;8.736;2023-09-08T15:05:30;33.10;52.50
54960;DHT22;40860;51.710;8.736;2023-09-08T15:09:33;33.60;49.20
54960;DHT22;40860;51.710;8.736;2023-09-08T15:13:36;33.60;49.80
54960;DHT22;40860;51.710;8.736;2023-09-08T15:17:41;34.00;50.30
54960;DHT22;40860;51.710;8.736;2023-09-08T15:21:44;34.50;50.70
54960;DHT22;40860;51.710;8.736;2023-09-08T15:25:51;35.60;47.50
54960;DHT22;40860;51.710;8.736;2023-09-08T15:29:54;35.40;50.10
54960;DHT22;40860;51.710;8.736;2023-09-08T15:33:58;35.20;53.60
54960;DHT22;40860;51.710;8.736;2023-09-08T15:38:01;35.00;54.60
54960;DHT22;40860;51.710;8.736;2023-09-08T15:42:04;34.70;54.20
54960;DHT22;40860;51.710;8.736;2023-09-08T15:46:07;34.50;46.10
54960;DHT22;40860;51.710;8.736;2023-09-08T15:50:12;34.40;46.90
54960;DHT22;40860;51.710;8.736;2023-09-08T15:54:15;34.50;48.10
54960;DHT22;40860;51.710;8.736;2023-09-08T15:58:18;34.50;47.10
54960;DHT22;40860;51.710;8.736;2023-09-08T16:02:21;34.50;47.60
54960;DHT22;40860;51.710;8.736;2023-09-08T16:06:25;34.40;47.00
54960;DHT22;40860;51.710;8.736;2023-09-08T16:10:28;34.00;46.80
54960;DHT22;40860;51.710;8.736;2023-09-08T16:14:31;34.00;47.00
54960;DHT22;40860;51.710;8.736;2023-09-08T16:18:34;33.80;47.70
54960;DHT22;40860;51.710;8.736;2023-09-08T16:22:39;33.70;47.40
54960;DHT22;40860;51.710;8.736;2023-09-08T16:26:41;33.60;48.50
54960;DHT22;40860;51.710;8.736;2023-09-08T16:30:44;33.60;48.10
54960;DHT22;40860;51.710;8.736;2023-09-08T16:34:51;33.30;48.00
54960;DHT22;40860;51.710;8.736;2023-09-08T16:38:55;33.20;48.50
54960;DHT22;40860;51.710;8.736;2023-09-08T16:42:58;32.90;49.70
54960;DHT22;40860;51.710;8.736;2023-09-08T16:47:05;32.60;50.80
54960;DHT22;40860;51.710;8.736;2023-09-08T16:51:08;32.30;50.20
54960;DHT22;40860;51.710;8.736;2023-09-08T16:55:13;32.10;50.00
54960;DHT22;40860;51.710;8.736;2023-09-08T16:59:16;31.70;50.60
54960;DHT22;40860;51.710;8.736;2023-09-08T17:03:22;31.40;52.50
54960;DHT22;40860;51.710;8.736;2023-09-08T17:07:25;31.00;51.90
54960;DHT22;40860;51.710;8.736;2023-09-08T17:11:29;30.70;52.90
54960;DHT22;40860;51.710;8.736;2023-09-08T17:15:38;30.10;53.70
54960;DHT22;40860;51.710;8.736;2023-09-08T17:19:41;29.80;55.10
54960;DHT22;40860;51.710;8.736;2023-09-08T17:23:44;29.40;55.10
54960;DHT22;40860;51.710;8.736;2023-09-08T17:27:48;29.10;56.00
54960;DHT22;40860;51.710;8.736;2023-09-08T17:31:52;28.70;57.30
54960;DHT22;40860;51.710;8.736;2023-09-08T17:35:56;28.30;57.30
54960;DHT22;40860;51.710;8.736;2023-09-08T17:39:59;28.00;58.30
54960;DHT22;40860;51.710;8.736;2023-09-08T17:44:04;27.70;59.30
54960;DHT22;40860;51.710;8.736;2023-09-08T17:48:07;27.40;59.50
54960;DHT22;40860;51.710;8.736;2023-09-08T17:52:10;27.00;60.50
54960;DHT22;40860;51.710;8.736;2023-09-08T17:56:13;26.90;60.80
54960;DHT22;40860;51.710;8.736;2023-09-08T18:00:18;26.80;61.10
54960;DHT22;40860;51.710;8.736;2023-09-08T18:04:21;26.70;61.70
54960;DHT22;40860;51.710;8.736;2023-09-08T18:08:24;26.50;61.50
54960;DHT22;40860;51.710;8.736;2023-09-08T18:12:27;26.40;61.90
54960;DHT22;40860;51.710;8.736;2023-09-08T18:16:31;26.30;61.90
54960;DHT22;40860;51.710;8.736;2023-09-08T18:20:37;26.10;62.40
54960;DHT22;40860;51.710;8.736;2023-09-08T18:28:44;25.90;92.90
54960;DHT22;40860;51.710;8.736;2023-09-08T18:32:48;25.70;63.60
54960;DHT22;40860;51.710;8.736;2023-09-08T18:36:51;25.60;64.10
54960;DHT22;40860;51.710;8.736;2023-09-08T18:40:54;25.50;64.40
54960;DHT22;40860;51.710;8.736;2023-09-08T18:44:57;25.40;64.60
54960;DHT22;40860;51.710;8.736;2023-09-08T18:49:02;25.30;65.30
54960;DHT22;40860;51.710;8.736;2023-09-08T18:53:05;25.30;65.80
54960;DHT22;40860;51.710;8.736;2023-09-08T18:57:08;25.20;66.30
54960;DHT22;40860;51.710;8.736;2023-09-08T19:01:11;25.00;65.80
54960;DHT22;40860;51.710;8.736;2023-09-08T19:05:16;25.00;66.80
54960;DHT22;40860;51.710;8.736;2023-09-08T19:09:19;24.90;67.80
54960;DHT22;40860;51.710;8.736;2023-09-08T19:13:22;24.70;69.00
54960;DHT22;40860;51.710;8.736;2023-09-08T19:17:25;24.60;69.50
54960;DHT22;40860;51.710;8.736;2023-09-08T19:21:29;24.50;71.10
54960;DHT22;40860;51.710;8.736;2023-09-08T19:25:35;24.30;72.40
54960;DHT22;40860;51.710;8.736;2023-09-08T19:29:38;24.00;74.20
54960;DHT22;40860;51.710;8.736;2023-09-08T19:33:41;23.80;75.50
54960;DHT22;40860;51.710;8.736;2023-09-08T19:37:46;23.70;76.50
54960;DHT22;40860;51.710;8.736;2023-09-08T19:41:49;23.50;77.10
54960;DHT22;40860;51.710;8.736;2023-09-08T19:45:52;23.40;77.10
54960;DHT22;40860;51.710;8.736;2023-09-08T19:49:55;23.30;78.90
54960;DHT22;40860;51.710;8.736;2023-09-08T19:54:01;23.10;79.20
54960;DHT22;40860;51.710;8.736;2023-09-08T19:58:04;23.00;80.00
54960;DHT22;40860;51.710;8.736;2023-09-08T20:02:07;22.90;81.30
54960;DHT22;40860;51.710;8.736;2023-09-08T20:06:12;22.80;82.20
54960;DHT22;40860;51.710;8.736;2023-09-08T20:10:17;22.70;83.20
54960;DHT22;40860;51.710;8.736;2023-09-08T20:14:21;22.50;84.90
54960;DHT22;40860;51.710;8.736;2023-09-08T20:18:24;22.40;85.80
54960;DHT22;40860;51.710;8.736;2023-09-08T20:22:27;22.30;87.30
54960;DHT22;40860;51.710;8.736;2023-09-08T20:26:31;22.30;88.00
54960;DHT22;40860;51.710;8.736;2023-09-08T20:30:37;22.30;88.60
54960;DHT22;40860;51.710;8.736;2023-09-08T20:34:40;22.20;90.10
54960;DHT22;40860;51.710;8.736;2023-09-08T20:38:43;22.00;90.00
54960;DHT22;40860;51.710;8.736;2023-09-08T20:42:48;22.00;90.30
54960;DHT22;40860;51.710;8.736;2023-09-08T20:46:50;22.00;90.40
54960;DHT22;40860;51.710;8.736;2023-09-08T20:50:58;21.90;90.30
54960;DHT22;40860;51.710;8.736;2023-09-08T20:55:01;21.90;90.40
54960;DHT22;40860;51.710;8.736;2023-09-08T20:59:05;22.00;90.30
54960;DHT22;40860;51.710;8.736;2023-09-08T21:03:08;22.00;89.90
54960;DHT22;40860;51.710;8.736;2023-09-08T21:07:11;22.00;90.00
54960;DHT22;40860;51.710;8.736;2023-09-08T21:11:14;22.00;90.20
54960;DHT22;40860;51.710;8.736;2023-09-08T21:15:20;21.90;90.30
54960;DHT22;40860;51.710;8.736;2023-09-08T21:19:22;21.80;90.70
54960;DHT22;40860;51.710;8.736;2023-09-08T21:23:27;21.70;90.80
54960;DHT22;40860;51.710;8.736;2023-09-08T21:27:30;21.60;91.10
54960;DHT22;40860;51.710;8.736;2023-09-08T21:31:34;21.60;91.20
54960;DHT22;40860;51.710;8.736;2023-09-08T21:35:37;21.50;91.60
54960;DHT22;40860;51.710;8.736;2023-09-08T21:39:40;21.40;91.70
54960;DHT22;40860;51.710;8.736;2023-09-08T21:43:43;21.40;91.90
54960;DHT22;40860;51.710;8.736;2023-09-08T21:47:47;21.30;92.10
54960;DHT22;40860;51.710;8.736;2023-09-08T21:51:51;21.10;92.70
54960;DHT22;40860;51.710;8.736;2023-09-08T21:55:54;21.00;93.20
54960;DHT22;40860;51.710;8.736;2023-09-08T21:59:57;20.80;93.70
54960;DHT22;40860;51.710;8.736;2023-09-08T22:04:02;20.70;94.00
54960;DHT22;40860;51.710;8.736;2023-09-08T22:08:05;20.50;94.40
54960;DHT22;40860;51.710;8.736;2023-09-08T22:12:09;20.40;94.80
54960;DHT22;40860;51.710;8.736;2023-09-08T22:16:12;20.40;95.40
54960;DHT22;40860;51.710;8.736;2023-09-08T22:20:17;20.30;95.10
54960;DHT22;40860;51.710;8.736;2023-09-08T22:24:20;20.30;95.60
54960;DHT22;40860;51.710;8.736;2023-09-08T22:28:24;20.20;96.10
54960;DHT22;40860;51.710;8.736;2023-09-08T22:32:27;20.10;96.10
54960;DHT22;40860;51.710;8.736;2023-09-08T22:36:31;20.00;96.10
54960;DHT22;40860;51.710;8.736;2023-09-08T22:40:35;20.00;96.40
54960;DHT22;40860;51.710;8.736;2023-09-08T22:44:38;19.90;96.70
54960;DHT22;40860;51.710;8.736;2023-09-08T22:48:41;19.70;97.10
54960;DHT22;40860;51.710;8.736;2023-09-08T22:52:45;19.60;97.20
54960;DHT22;40860;51.710;8.736;2023-09-08T22:56:52;19.60;97.50
54960;DHT22;40860;51.710;8.736;2023-09-08T23:00:55;19.40;97.80
54960;DHT22;40860;51.710;8.736;2023-09-08T23:04:58;19.30;98.10
54960;DHT22;40860;51.710;8.736;2023-09-08T23:09:02;19.30;98.20
54960;DHT22;40860;51.710;8.736;2023-09-08T23:13:05;19.20;98.40
54960;DHT22;40860;51.710;8.736;2023-09-08T23:17:08;19.10;98.80
54960;DHT22;40860;51.710;8.736;2023-09-08T23:21:10;19.10;98.70
54960;DHT22;40860;51.710;8.736;2023-09-08T23:25:15;19.10;98.80
54960;DHT22;40860;51.710;8.736;2023-09-08T23:29:18;19.00;98.70
54960;DHT22;40860;51.710;8.736;2023-09-08T23:33:21;19.00;98.80
54960;DHT22;40860;51.710;8.736;2023-09-08T23:37:24;18.90;99.00
54960;DHT22;40860;51.710;8.736;2023-09-08T23:41:28;18.90;99.20
54960;DHT22;40860;51.710;8.736;2023-09-08T23:45:31;18.80;99.30
54960;DHT22;40860;51.710;8.736;2023-09-08T23:49:35;18.70;99.30
54960;DHT22;40860;51.710;8.736;2023-09-08T23:53:37;18.70;99.60
54960;DHT22;40860;51.710;8.736;2023-09-08T23:57:42;18.60;99.70
